sensor_id;sensor_type;location;lat;lon;timestamp;P1;durP1;ratioP1;P2;durP2;ratioP2
51216;SDS011;37283;49.760;8.648;2022-09-09T00:00:14;4.15;;;1.10;;
51216;SDS011;37283;49.760;8.648;2022-09-09T00:02:51;2.53;;;0.80;;
51216;SDS011;37283;49.760;8.648;2022-09-09T00:08:06;4.82;;;0.98;;
51216;SDS011;37283;49.760;8.648;2022-09-09T00:10:38;3.75;;;1.05;;
51216;SDS011;37283;49.760;8.648;2022-09-09T00:13:16;5.10;;;1.10;;
51216;SDS011;37283;49.760;8.648;2022-09-09T00:21:13;3.90;;;1.25;;
51216;SDS011;37283;49.760;8.648;2022-09-09T00:23:46;5.47;;;1.20;;
51216;SDS011;37283;49.760;8.648;2022-09-09T00:26:22;5.95;;;1.15;;
51216;SDS011;37283;49.760;8.648;2022-09-09T00:29:00;3.03;;;0.95;;
51216;SDS011;37283;49.760;8.648;2022-09-09T00:31:39;4.05;;;1.20;;
51216;SDS011;37283;49.760;8.648;2022-09-09T00:34:11;5.07;;;1.15;;
51216;SDS011;37283;49.760;8.648;2022-09-09T00:36:48;4.13;;;1.13;;
51216;SDS011;37283;49.760;8.648;2022-09-09T00:42:09;6.13;;;1.15;;
51216;SDS011;37283;49.760;8.648;2022-09-09T00:44:37;4.55;;;1.00;;
51216;SDS011;37283;49.760;8.648;2022-09-09T00:50:03;3.67;;;1.08;;
51216;SDS011;37283;49.760;8.648;2022-09-09T00:58:28;3.03;;;0.93;;
51216;SDS011;37283;49.760;8.648;2022-09-09T01:03:35;4.18;;;1.17;;
51216;SDS011;37283;49.760;8.648;2022-09-09T01:06:16;5.32;;;1.30;;
51216;SDS011;37283;49.760;8.648;2022-09-09T01:11:45;3.30;;;1.35;;
51216;SDS011;37283;49.760;8.648;2022-09-09T01:17:15;3.92;;;1.30;;
51216;SDS011;37283;49.760;8.648;2022-09-09T01:20:23;5.40;;;1.02;;
51216;SDS011;37283;49.760;8.648;2022-09-09T01:22:58;3.53;;;1.20;;
51216;SDS011;37283;49.760;8.648;2022-09-09T01:28:41;6.18;;;1.40;;
51216;SDS011;37283;49.760;8.648;2022-09-09T01:31:14;4.80;;;1.50;;
51216;SDS011;37283;49.760;8.648;2022-09-09T01:33:45;4.25;;;1.27;;
51216;SDS011;37283;49.760;8.648;2022-09-09T01:36:15;6.30;;;1.50;;
51216;SDS011;37283;49.760;8.648;2022-09-09T01:38:50;5.70;;;1.27;;
51216;SDS011;37283;49.760;8.648;2022-09-09T01:41:17;3.78;;;1.17;;
51216;SDS011;37283;49.760;8.648;2022-09-09T01:43:55;4.10;;;1.17;;
51216;SDS011;37283;49.760;8.648;2022-09-09T01:46:22;5.90;;;1.40;;
51216;SDS011;37283;49.760;8.648;2022-09-09T01:48:50;3.53;;;1.20;;
51216;SDS011;37283;49.760;8.648;2022-09-09T01:51:18;5.15;;;1.23;;
51216;SDS011;37283;49.760;8.648;2022-09-09T01:53:46;4.60;;;1.05;;
51216;SDS011;37283;49.760;8.648;2022-09-09T02:02:12;5.28;;;1.30;;
51216;SDS011;37283;49.760;8.648;2022-09-09T02:04:52;5.22;;;1.10;;
51216;SDS011;37283;49.760;8.648;2022-09-09T02:07:39;5.22;;;1.45;;
51216;SDS011;37283;49.760;8.648;2022-09-09T02:10:21;3.30;;;1.20;;
51216;SDS011;37283;49.760;8.648;2022-09-09T02:13:10;10.27;;;1.70;;
51216;SDS011;37283;49.760;8.648;2022-09-09T02:15:52;5.13;;;1.33;;
51216;SDS011;37283;49.760;8.648;2022-09-09T02:18:24;5.05;;;1.30;;
51216;SDS011;37283;49.760;8.648;2022-09-09T02:20:54;4.38;;;1.10;;
51216;SDS011;37283;49.760;8.648;2022-09-09T02:23:23;5.78;;;1.20;;
51216;SDS011;37283;49.760;8.648;2022-09-09T02:25:53;5.80;;;1.40;;
51216;SDS011;37283;49.760;8.648;2022-09-09T02:28:23;4.93;;;1.13;;
51216;SDS011;37283;49.760;8.648;2022-09-09T02:30:51;1.93;;;0.97;;
51216;SDS011;37283;49.760;8.648;2022-09-09T02:33:28;6.50;;;1.33;;
51216;SDS011;37283;49.760;8.648;2022-09-09T02:35:58;4.68;;;1.20;;
51216;SDS011;37283;49.760;8.648;2022-09-09T02:38:31;3.95;;;0.95;;
51216;SDS011;37283;49.760;8.648;2022-09-09T02:41:07;6.20;;;1.73;;
51216;SDS011;37283;49.760;8.648;2022-09-09T02:43:35;3.30;;;1.10;;
51216;SDS011;37283;49.760;8.648;2022-09-09T02:46:43;4.53;;;1.00;;
51216;SDS011;37283;49.760;8.648;2022-09-09T02:49:25;7.75;;;1.70;;
51216;SDS011;37283;49.760;8.648;2022-09-09T02:52:04;6.50;;;1.52;;
51216;SDS011;37283;49.760;8.648;2022-09-09T02:54:38;3.53;;;1.30;;
51216;SDS011;37283;49.760;8.648;2022-09-09T02:57:14;5.82;;;1.30;;
51216;SDS011;37283;49.760;8.648;2022-09-09T02:59:46;4.15;;;1.23;;
51216;SDS011;37283;49.760;8.648;2022-09-09T03:02:13;3.05;;;0.90;;
51216;SDS011;37283;49.760;8.648;2022-09-09T03:04:42;4.45;;;1.23;;
51216;SDS011;37283;49.760;8.648;2022-09-09T03:07:11;3.22;;;1.10;;
51216;SDS011;37283;49.760;8.648;2022-09-09T03:09:40;3.27;;;0.90;;
51216;SDS011;37283;49.760;8.648;2022-09-09T03:12:06;7.20;;;1.42;;
51216;SDS011;37283;49.760;8.648;2022-09-09T03:14:34;4.80;;;1.30;;
51216;SDS011;37283;49.760;8.648;2022-09-09T03:17:00;5.10;;;1.40;;
51216;SDS011;37283;49.760;8.648;2022-09-09T03:19:33;6.32;;;1.35;;
51216;SDS011;37283;49.760;8.648;2022-09-09T03:22:02;3.00;;;1.20;;
51216;SDS011;37283;49.760;8.648;2022-09-09T03:24:32;6.07;;;1.40;;
51216;SDS011;37283;49.760;8.648;2022-09-09T03:27:02;8.15;;;2.00;;
51216;SDS011;37283;49.760;8.648;2022-09-09T03:29:29;6.30;;;1.30;;
51216;SDS011;37283;49.760;8.648;2022-09-09T03:31:59;4.05;;;1.55;;
51216;SDS011;37283;49.760;8.648;2022-09-09T03:34:26;5.63;;;1.10;;
51216;SDS011;37283;49.760;8.648;2022-09-09T03:36:54;4.72;;;1.50;;
51216;SDS011;37283;49.760;8.648;2022-09-09T03:39:21;4.97;;;1.30;;
51216;SDS011;37283;49.760;8.648;2022-09-09T03:41:47;8.60;;;1.70;;
51216;SDS011;37283;49.760;8.648;2022-09-09T03:44:14;4.57;;;1.27;;
51216;SDS011;37283;49.760;8.648;2022-09-09T03:46:42;5.63;;;1.60;;
51216;SDS011;37283;49.760;8.648;2022-09-09T03:49:08;5.28;;;1.05;;
51216;SDS011;37283;49.760;8.648;2022-09-09T03:51:36;4.13;;;1.10;;
51216;SDS011;37283;49.760;8.648;2022-09-09T03:54:04;5.25;;;1.30;;
51216;SDS011;37283;49.760;8.648;2022-09-09T03:56:34;4.82;;;1.13;;
51216;SDS011;37283;49.760;8.648;2022-09-09T03:59:01;4.05;;;1.08;;
51216;SDS011;37283;49.760;8.648;2022-09-09T04:01:28;7.75;;;1.45;;
51216;SDS011;37283;49.760;8.648;2022-09-09T04:03:55;5.80;;;1.10;;
51216;SDS011;37283;49.760;8.648;2022-09-09T04:08:51;5.07;;;1.55;;
51216;SDS011;37283;49.760;8.648;2022-09-09T04:11:19;4.95;;;1.30;;
51216;SDS011;37283;49.760;8.648;2022-09-09T04:13:48;6.75;;;1.23;;
51216;SDS011;37283;49.760;8.648;2022-09-09T04:16:16;5.20;;;1.30;;
51216;SDS011;37283;49.760;8.648;2022-09-09T04:18:43;7.15;;;1.33;;
51216;SDS011;37283;49.760;8.648;2022-09-09T04:21:11;4.90;;;1.23;;
51216;SDS011;37283;49.760;8.648;2022-09-09T04:23:39;6.40;;;1.40;;
51216;SDS011;37283;49.760;8.648;2022-09-09T04:26:05;2.72;;;1.05;;
51216;SDS011;37283;49.760;8.648;2022-09-09T04:28:34;7.18;;;1.50;;
51216;SDS011;37283;49.760;8.648;2022-09-09T04:31:07;6.72;;;1.60;;
51216;SDS011;37283;49.760;8.648;2022-09-09T04:33:38;6.55;;;1.60;;
51216;SDS011;37283;49.760;8.648;2022-09-09T04:36:07;6.68;;;1.50;;
51216;SDS011;37283;49.760;8.648;2022-09-09T04:38:34;5.80;;;1.30;;
51216;SDS011;37283;49.760;8.648;2022-09-09T04:41:02;5.13;;;1.25;;
51216;SDS011;37283;49.760;8.648;2022-09-09T04:43:30;5.05;;;1.40;;
51216;SDS011;37283;49.760;8.648;2022-09-09T04:45:58;6.05;;;1.40;;
51216;SDS011;37283;49.760;8.648;2022-09-09T04:48:25;5.60;;;1.40;;
51216;SDS011;37283;49.760;8.648;2022-09-09T04:50:59;4.15;;;1.20;;
51216;SDS011;37283;49.760;8.648;2022-09-09T04:53:29;3.58;;;1.10;;
51216;SDS011;37283;49.760;8.648;2022-09-09T04:56:13;4.57;;;1.77;;
51216;SDS011;37283;49.760;8.648;2022-09-09T04:58:46;4.72;;;1.60;;
51216;SDS011;37283;49.760;8.648;2022-09-09T05:03:43;4.53;;;1.23;;
51216;SDS011;37283;49.760;8.648;2022-09-09T05:06:15;4.63;;;1.13;;
51216;SDS011;37283;49.760;8.648;2022-09-09T05:08:45;3.53;;;1.17;;
51216;SDS011;37283;49.760;8.648;2022-09-09T05:11:24;3.83;;;1.20;;
51216;SDS011;37283;49.760;8.648;2022-09-09T05:13:57;3.20;;;1.10;;
51216;SDS011;37283;49.760;8.648;2022-09-09T05:16:26;4.68;;;1.13;;
51216;SDS011;37283;49.760;8.648;2022-09-09T05:18:53;9.30;;;1.05;;
51216;SDS011;37283;49.760;8.648;2022-09-09T05:21:21;4.80;;;1.70;;
51216;SDS011;37283;49.760;8.648;2022-09-09T05:23:49;3.85;;;1.10;;
51216;SDS011;37283;49.760;8.648;2022-09-09T05:26:18;3.90;;;0.98;;
51216;SDS011;37283;49.760;8.648;2022-09-09T05:28:48;3.95;;;1.30;;
51216;SDS011;37283;49.760;8.648;2022-09-09T05:31:15;6.03;;;1.45;;
51216;SDS011;37283;49.760;8.648;2022-09-09T05:33:45;4.25;;;1.15;;
51216;SDS011;37283;49.760;8.648;2022-09-09T05:36:16;8.23;;;1.20;;
51216;SDS011;37283;49.760;8.648;2022-09-09T05:38:45;3.70;;;1.00;;
51216;SDS011;37283;49.760;8.648;2022-09-09T05:41:13;5.00;;;1.05;;
51216;SDS011;37283;49.760;8.648;2022-09-09T05:43:45;4.88;;;1.20;;
51216;SDS011;37283;49.760;8.648;2022-09-09T05:46:14;3.28;;;0.95;;
51216;SDS011;37283;49.760;8.648;2022-09-09T05:51:10;4.15;;;0.90;;
51216;SDS011;37283;49.760;8.648;2022-09-09T05:53:44;5.68;;;1.17;;
51216;SDS011;37283;49.760;8.648;2022-09-09T05:56:12;4.03;;;1.23;;
51216;SDS011;37283;49.760;8.648;2022-09-09T05:58:41;5.38;;;1.20;;
51216;SDS011;37283;49.760;8.648;2022-09-09T06:01:14;4.70;;;1.15;;
51216;SDS011;37283;49.760;8.648;2022-09-09T06:03:43;2.92;;;1.05;;
51216;SDS011;37283;49.760;8.648;2022-09-09T06:06:14;3.80;;;0.90;;
51216;SDS011;37283;49.760;8.648;2022-09-09T06:08:44;6.97;;;1.20;;
51216;SDS011;37283;49.760;8.648;2022-09-09T06:11:14;8.95;;;1.73;;
51216;SDS011;37283;49.760;8.648;2022-09-09T06:13:42;5.65;;;1.50;;
51216;SDS011;37283;49.760;8.648;2022-09-09T06:16:09;5.00;;;1.25;;
51216;SDS011;37283;49.760;8.648;2022-09-09T06:18:39;7.80;;;1.00;;
51216;SDS011;37283;49.760;8.648;2022-09-09T06:21:08;4.28;;;1.10;;
51216;SDS011;37283;49.760;8.648;2022-09-09T06:23:39;7.28;;;1.30;;
51216;SDS011;37283;49.760;8.648;2022-09-09T06:26:07;3.30;;;1.40;;
51216;SDS011;37283;49.760;8.648;2022-09-09T06:28:36;3.80;;;1.40;;
51216;SDS011;37283;49.760;8.648;2022-09-09T06:31:04;4.40;;;1.25;;
51216;SDS011;37283;49.760;8.648;2022-09-09T06:33:32;4.50;;;1.20;;
51216;SDS011;37283;49.760;8.648;2022-09-09T06:36:05;5.18;;;1.20;;
51216;SDS011;37283;49.760;8.648;2022-09-09T06:38:31;4.63;;;1.20;;
51216;SDS011;37283;49.760;8.648;2022-09-09T06:40:59;3.95;;;1.05;;
51216;SDS011;37283;49.760;8.648;2022-09-09T06:43:27;6.20;;;1.52;;
51216;SDS011;37283;49.760;8.648;2022-09-09T06:45:55;3.92;;;1.35;;
51216;SDS011;37283;49.760;8.648;2022-09-09T06:48:41;4.65;;;1.10;;
51216;SDS011;37283;49.760;8.648;2022-09-09T06:51:19;6.88;;;1.38;;
51216;SDS011;37283;49.760;8.648;2022-09-09T06:53:51;6.35;;;1.63;;
51216;SDS011;37283;49.760;8.648;2022-09-09T06:56:21;4.53;;;1.20;;
51216;SDS011;37283;49.760;8.648;2022-09-09T06:58:59;6.45;;;1.50;;
51216;SDS011;37283;49.760;8.648;2022-09-09T07:01:31;5.68;;;1.48;;
51216;SDS011;37283;49.760;8.648;2022-09-09T07:04:05;6.60;;;1.50;;
51216;SDS011;37283;49.760;8.648;2022-09-09T07:06:36;4.10;;;1.27;;
51216;SDS011;37283;49.760;8.648;2022-09-09T07:09:07;5.07;;;1.35;;
51216;SDS011;37283;49.760;8.648;2022-09-09T07:11:41;4.95;;;1.20;;
51216;SDS011;37283;49.760;8.648;2022-09-09T07:14:12;6.80;;;1.40;;
51216;SDS011;37283;49.760;8.648;2022-09-09T07:16:43;6.88;;;1.45;;
51216;SDS011;37283;49.760;8.648;2022-09-09T07:19:10;5.88;;;1.48;;
51216;SDS011;37283;49.760;8.648;2022-09-09T07:21:38;5.85;;;1.35;;
51216;SDS011;37283;49.760;8.648;2022-09-09T07:24:08;7.45;;;1.40;;
51216;SDS011;37283;49.760;8.648;2022-09-09T07:26:38;8.38;;;1.50;;
51216;SDS011;37283;49.760;8.648;2022-09-09T07:29:06;4.57;;;1.30;;
51216;SDS011;37283;49.760;8.648;2022-09-09T07:31:34;4.53;;;1.50;;
51216;SDS011;37283;49.760;8.648;2022-09-09T07:34:06;7.03;;;1.60;;
51216;SDS011;37283;49.760;8.648;2022-09-09T07:36:34;5.90;;;1.50;;
51216;SDS011;37283;49.760;8.648;2022-09-09T07:41:33;6.68;;;1.42;;
51216;SDS011;37283;49.760;8.648;2022-09-09T07:44:07;6.82;;;1.48;;
51216;SDS011;37283;49.760;8.648;2022-09-09T07:46:38;6.10;;;1.35;;
51216;SDS011;37283;49.760;8.648;2022-09-09T07:49:09;6.00;;;1.52;;
51216;SDS011;37283;49.760;8.648;2022-09-09T07:51:38;6.70;;;1.65;;
51216;SDS011;37283;49.760;8.648;2022-09-09T07:54:06;5.90;;;1.15;;
51216;SDS011;37283;49.760;8.648;2022-09-09T07:56:37;5.45;;;1.73;;
51216;SDS011;37283;49.760;8.648;2022-09-09T07:59:06;3.65;;;1.42;;
51216;SDS011;37283;49.760;8.648;2022-09-09T08:01:38;6.50;;;1.63;;
51216;SDS011;37283;49.760;8.648;2022-09-09T08:04:18;6.72;;;1.35;;
51216;SDS011;37283;49.760;8.648;2022-09-09T08:06:47;7.78;;;1.40;;
51216;SDS011;37283;49.760;8.648;2022-09-09T08:09:17;5.30;;;1.40;;
51216;SDS011;37283;49.760;8.648;2022-09-09T08:11:45;5.93;;;1.60;;
51216;SDS011;37283;49.760;8.648;2022-09-09T08:14:13;5.57;;;1.40;;
51216;SDS011;37283;49.760;8.648;2022-09-09T08:16:42;4.72;;;1.25;;
51216;SDS011;37283;49.760;8.648;2022-09-09T08:19:12;9.05;;;1.60;;
51216;SDS011;37283;49.760;8.648;2022-09-09T08:21:41;4.63;;;1.43;;
51216;SDS011;37283;49.760;8.648;2022-09-09T08:24:10;5.05;;;1.52;;
51216;SDS011;37283;49.760;8.648;2022-09-09T08:26:38;9.07;;;1.80;;
51216;SDS011;37283;49.760;8.648;2022-09-09T08:29:09;6.13;;;1.50;;
51216;SDS011;37283;49.760;8.648;2022-09-09T08:31:38;8.15;;;1.35;;
51216;SDS011;37283;49.760;8.648;2022-09-09T08:34:06;5.03;;;1.50;;
51216;SDS011;37283;49.760;8.648;2022-09-09T08:36:34;6.03;;;1.30;;
51216;SDS011;37283;49.760;8.648;2022-09-09T08:47:30;10.75;;;1.60;;
51216;SDS011;37283;49.760;8.648;2022-09-09T08:53:02;6.82;;;1.48;;
51216;SDS011;37283;49.760;8.648;2022-09-09T08:55:49;7.88;;;1.92;;
51216;SDS011;37283;49.760;8.648;2022-09-09T08:58:26;6.78;;;1.60;;
51216;SDS011;37283;49.760;8.648;2022-09-09T09:08:04;6.45;;;1.35;;
51216;SDS011;37283;49.760;8.648;2022-09-09T09:10:31;7.72;;;1.90;;
51216;SDS011;37283;49.760;8.648;2022-09-09T09:13:34;9.68;;;1.77;;
51216;SDS011;37283;49.760;8.648;2022-09-09T09:16:13;6.82;;;1.80;;
51216;SDS011;37283;49.760;8.648;2022-09-09T09:19:04;9.02;;;1.58;;
51216;SDS011;37283;49.760;8.648;2022-09-09T09:21:47;8.07;;;1.60;;
51216;SDS011;37283;49.760;8.648;2022-09-09T09:24:21;6.55;;;1.38;;
51216;SDS011;37283;49.760;8.648;2022-09-09T09:26:52;10.95;;;2.00;;
51216;SDS011;37283;49.760;8.648;2022-09-09T09:29:19;5.88;;;1.48;;
51216;SDS011;37283;49.760;8.648;2022-09-09T09:31:51;7.22;;;1.92;;
51216;SDS011;37283;49.760;8.648;2022-09-09T09:34:18;8.63;;;1.77;;
51216;SDS011;37283;49.760;8.648;2022-09-09T09:36:52;9.38;;;1.83;;
51216;SDS011;37283;49.760;8.648;2022-09-09T09:39:26;4.20;;;1.33;;
51216;SDS011;37283;49.760;8.648;2022-09-09T09:42:17;5.50;;;1.50;;
51216;SDS011;37283;49.760;8.648;2022-09-09T09:44:49;5.40;;;1.20;;
51216;SDS011;37283;49.760;8.648;2022-09-09T09:47:19;6.75;;;1.58;;
51216;SDS011;37283;49.760;8.648;2022-09-09T09:50:16;5.00;;;1.40;;
51216;SDS011;37283;49.760;8.648;2022-09-09T09:52:51;6.15;;;1.30;;
51216;SDS011;37283;49.760;8.648;2022-09-09T09:55:21;4.97;;;1.40;;
51216;SDS011;37283;49.760;8.648;2022-09-09T09:57:48;5.90;;;1.30;;
51216;SDS011;37283;49.760;8.648;2022-09-09T10:00:16;7.07;;;1.70;;
51216;SDS011;37283;49.760;8.648;2022-09-09T10:02:52;4.35;;;1.65;;
51216;SDS011;37283;49.760;8.648;2022-09-09T10:05:23;6.00;;;1.40;;
51216;SDS011;37283;49.760;8.648;2022-09-09T10:08:00;6.03;;;1.50;;
51216;SDS011;37283;49.760;8.648;2022-09-09T10:10:34;7.68;;;1.65;;
51216;SDS011;37283;49.760;8.648;2022-09-09T10:13:27;6.78;;;1.58;;
51216;SDS011;37283;49.760;8.648;2022-09-09T10:18:50;6.40;;;1.30;;
51216;SDS011;37283;49.760;8.648;2022-09-09T10:26:47;6.53;;;1.58;;
51216;SDS011;37283;49.760;8.648;2022-09-09T10:46:10;5.75;;;1.33;;
51216;SDS011;37283;49.760;8.648;2022-09-09T10:48:53;5.07;;;1.63;;
51216;SDS011;37283;49.760;8.648;2022-09-09T10:51:33;5.30;;;1.23;;
51216;SDS011;37283;49.760;8.648;2022-09-09T10:54:12;4.28;;;1.48;;
51216;SDS011;37283;49.760;8.648;2022-09-09T10:56:43;5.45;;;1.42;;
51216;SDS011;37283;49.760;8.648;2022-09-09T10:59:13;6.75;;;1.17;;
51216;SDS011;37283;49.760;8.648;2022-09-09T11:01:44;5.60;;;1.35;;
51216;SDS011;37283;49.760;8.648;2022-09-09T11:04:35;4.38;;;1.05;;
51216;SDS011;37283;49.760;8.648;2022-09-09T11:07:22;4.47;;;1.38;;
51216;SDS011;37283;49.760;8.648;2022-09-09T11:10:06;10.10;;;1.60;;
51216;SDS011;37283;49.760;8.648;2022-09-09T11:12:39;6.18;;;1.30;;
51216;SDS011;37283;49.760;8.648;2022-09-09T11:15:58;4.15;;;1.35;;
51216;SDS011;37283;49.760;8.648;2022-09-09T11:17:59;3.25;;;0.90;;
51216;SDS011;37283;49.760;8.648;2022-09-09T11:20:27;3.13;;;1.02;;
51216;SDS011;37283;49.760;8.648;2022-09-09T11:22:56;4.18;;;1.20;;
51216;SDS011;37283;49.760;8.648;2022-09-09T11:25:27;5.97;;;1.27;;
51216;SDS011;37283;49.760;8.648;2022-09-09T11:39:35;5.30;;;1.27;;
51216;SDS011;37283;49.760;8.648;2022-09-09T11:42:06;4.35;;;1.02;;
51216;SDS011;37283;49.760;8.648;2022-09-09T11:44:34;4.80;;;1.80;;
51216;SDS011;37283;49.760;8.648;2022-09-09T11:47:00;5.75;;;1.40;;
51216;SDS011;37283;49.760;8.648;2022-09-09T11:49:48;5.47;;;1.27;;
51216;SDS011;37283;49.760;8.648;2022-09-09T11:52:48;6.30;;;1.30;;
51216;SDS011;37283;49.760;8.648;2022-09-09T11:55:25;5.95;;;1.33;;
51216;SDS011;37283;49.760;8.648;2022-09-09T12:00:36;6.10;;;1.45;;
51216;SDS011;37283;49.760;8.648;2022-09-09T12:06:15;5.15;;;1.13;;
51216;SDS011;37283;49.760;8.648;2022-09-09T12:08:55;6.80;;;1.23;;
51216;SDS011;37283;49.760;8.648;2022-09-09T12:11:26;5.00;;;1.42;;
51216;SDS011;37283;49.760;8.648;2022-09-09T12:13:54;5.50;;;1.13;;
51216;SDS011;37283;49.760;8.648;2022-09-09T12:16:28;4.47;;;1.48;;
51216;SDS011;37283;49.760;8.648;2022-09-09T12:19:04;4.60;;;1.10;;
51216;SDS011;37283;49.760;8.648;2022-09-09T12:24:13;6.63;;;1.50;;
51216;SDS011;37283;49.760;8.648;2022-09-09T12:32:06;6.60;;;1.70;;
51216;SDS011;37283;49.760;8.648;2022-09-09T12:39:56;6.65;;;1.88;;
51216;SDS011;37283;49.760;8.648;2022-09-09T12:42:26;5.72;;;1.55;;
51216;SDS011;37283;49.760;8.648;2022-09-09T12:44:57;7.50;;;1.73;;
51216;SDS011;37283;49.760;8.648;2022-09-09T12:47:26;4.95;;;1.20;;
51216;SDS011;37283;49.760;8.648;2022-09-09T12:52:31;2.70;;;1.00;;
51216;SDS011;37283;49.760;8.648;2022-09-09T12:55:00;2.90;;;1.00;;
51216;SDS011;37283;49.760;8.648;2022-09-09T12:57:31;4.95;;;1.00;;
51216;SDS011;37283;49.760;8.648;2022-09-09T13:00:14;4.38;;;1.13;;
51216;SDS011;37283;49.760;8.648;2022-09-09T13:02:46;6.80;;;1.67;;
51216;SDS011;37283;49.760;8.648;2022-09-09T13:05:19;2.40;;;1.08;;
51216;SDS011;37283;49.760;8.648;2022-09-09T13:07:50;3.60;;;0.80;;
51216;SDS011;37283;49.760;8.648;2022-09-09T13:10:21;5.40;;;1.00;;
51216;SDS011;37283;49.760;8.648;2022-09-09T13:13:13;3.42;;;0.80;;
51216;SDS011;37283;49.760;8.648;2022-09-09T13:15:47;6.18;;;1.20;;
51216;SDS011;37283;49.760;8.648;2022-09-09T13:18:15;3.85;;;1.00;;
51216;SDS011;37283;49.760;8.648;2022-09-09T13:20:47;3.40;;;0.80;;
51216;SDS011;37283;49.760;8.648;2022-09-09T13:23:14;3.58;;;1.08;;
51216;SDS011;37283;49.760;8.648;2022-09-09T13:25:41;3.30;;;1.15;;
51216;SDS011;37283;49.760;8.648;2022-09-09T13:28:23;4.38;;;1.27;;
51216;SDS011;37283;49.760;8.648;2022-09-09T13:31:36;4.38;;;1.10;;
51216;SDS011;37283;49.760;8.648;2022-09-09T13:33:54;2.15;;;0.85;;
51216;SDS011;37283;49.760;8.648;2022-09-09T13:36:30;5.20;;;1.10;;
51216;SDS011;37283;49.760;8.648;2022-09-09T13:38:59;5.07;;;1.00;;
51216;SDS011;37283;49.760;8.648;2022-09-09T13:41:36;4.68;;;1.10;;
51216;SDS011;37283;49.760;8.648;2022-09-09T13:44:03;3.45;;;1.05;;
51216;SDS011;37283;49.760;8.648;2022-09-09T13:54:05;3.65;;;0.95;;
51216;SDS011;37283;49.760;8.648;2022-09-09T13:56:33;5.40;;;1.17;;
51216;SDS011;37283;49.760;8.648;2022-09-09T13:59:00;3.20;;;1.00;;
51216;SDS011;37283;49.760;8.648;2022-09-09T14:01:27;6.68;;;1.17;;
51216;SDS011;37283;49.760;8.648;2022-09-09T14:03:55;5.88;;;0.80;;
51216;SDS011;37283;49.760;8.648;2022-09-09T14:06:21;2.25;;;0.65;;
51216;SDS011;37283;49.760;8.648;2022-09-09T14:08:49;0.75;;;0.40;;
51216;SDS011;37283;49.760;8.648;2022-09-09T14:11:16;1.55;;;0.50;;
51216;SDS011;37283;49.760;8.648;2022-09-09T14:13:43;1.48;;;0.50;;
51216;SDS011;37283;49.760;8.648;2022-09-09T14:16:10;1.02;;;0.40;;
51216;SDS011;37283;49.760;8.648;2022-09-09T14:18:36;1.58;;;0.60;;
51216;SDS011;37283;49.760;8.648;2022-09-09T14:21:04;1.42;;;0.65;;
51216;SDS011;37283;49.760;8.648;2022-09-09T14:23:31;1.73;;;0.65;;
51216;SDS011;37283;49.760;8.648;2022-09-09T14:25:58;2.40;;;0.70;;
51216;SDS011;37283;49.760;8.648;2022-09-09T14:28:24;2.28;;;0.70;;
51216;SDS011;37283;49.760;8.648;2022-09-09T14:31:11;2.38;;;0.68;;
51216;SDS011;37283;49.760;8.648;2022-09-09T14:33:39;2.80;;;0.80;;
51216;SDS011;37283;49.760;8.648;2022-09-09T14:36:06;1.90;;;0.68;;
51216;SDS011;37283;49.760;8.648;2022-09-09T14:38:33;2.35;;;0.77;;
51216;SDS011;37283;49.760;8.648;2022-09-09T14:41:09;3.95;;;0.90;;
51216;SDS011;37283;49.760;8.648;2022-09-09T14:43:40;2.67;;;0.80;;
51216;SDS011;37283;49.760;8.648;2022-09-09T14:46:07;6.13;;;0.77;;
51216;SDS011;37283;49.760;8.648;2022-09-09T14:48:35;4.53;;;0.90;;
51216;SDS011;37283;49.760;8.648;2022-09-09T14:51:09;2.67;;;0.60;;
51216;SDS011;37283;49.760;8.648;2022-09-09T14:53:36;2.42;;;0.85;;
51216;SDS011;37283;49.760;8.648;2022-09-09T14:56:07;1.77;;;0.55;;
51216;SDS011;37283;49.760;8.648;2022-09-09T14:58:38;2.40;;;0.70;;
51216;SDS011;37283;49.760;8.648;2022-09-09T15:01:05;2.70;;;1.10;;
51216;SDS011;37283;49.760;8.648;2022-09-09T15:03:39;4.32;;;0.95;;
51216;SDS011;37283;49.760;8.648;2022-09-09T15:06:07;3.22;;;1.00;;
51216;SDS011;37283;49.760;8.648;2022-09-09T15:08:35;2.27;;;0.70;;
51216;SDS011;37283;49.760;8.648;2022-09-09T15:11:07;3.17;;;0.85;;
51216;SDS011;37283;49.760;8.648;2022-09-09T15:13:36;3.22;;;0.82;;
51216;SDS011;37283;49.760;8.648;2022-09-09T15:16:04;2.72;;;0.70;;
51216;SDS011;37283;49.760;8.648;2022-09-09T15:18:32;4.00;;;1.00;;
51216;SDS011;37283;49.760;8.648;2022-09-09T15:20:59;2.60;;;0.70;;
51216;SDS011;37283;49.760;8.648;2022-09-09T15:23:27;3.15;;;1.02;;
51216;SDS011;37283;49.760;8.648;2022-09-09T15:25:54;2.58;;;0.90;;
51216;SDS011;37283;49.760;8.648;2022-09-09T15:28:22;3.40;;;0.80;;
51216;SDS011;37283;49.760;8.648;2022-09-09T15:30:49;4.80;;;1.08;;
51216;SDS011;37283;49.760;8.648;2022-09-09T15:33:15;3.47;;;1.00;;
51216;SDS011;37283;49.760;8.648;2022-09-09T15:35:42;6.22;;;0.88;;
51216;SDS011;37283;49.760;8.648;2022-09-09T15:38:08;3.70;;;1.00;;
51216;SDS011;37283;49.760;8.648;2022-09-09T15:40:35;4.60;;;1.13;;
51216;SDS011;37283;49.760;8.648;2022-09-09T15:43:01;4.85;;;0.80;;
51216;SDS011;37283;49.760;8.648;2022-09-09T15:45:29;3.13;;;1.10;;
51216;SDS011;37283;49.760;8.648;2022-09-09T15:47:57;4.28;;;1.00;;
51216;SDS011;37283;49.760;8.648;2022-09-09T15:50:23;3.38;;;0.80;;
51216;SDS011;37283;49.760;8.648;2022-09-09T15:52:50;4.18;;;1.13;;
51216;SDS011;37283;49.760;8.648;2022-09-09T15:55:18;4.83;;;1.03;;
51216;SDS011;37283;49.760;8.648;2022-09-09T15:57:46;1.88;;;0.60;;
51216;SDS011;37283;49.760;8.648;2022-09-09T16:00:12;2.67;;;0.90;;
51216;SDS011;37283;49.760;8.648;2022-09-09T16:02:39;3.65;;;0.70;;
51216;SDS011;37283;49.760;8.648;2022-09-09T16:05:06;2.55;;;0.60;;
51216;SDS011;37283;49.760;8.648;2022-09-09T16:07:33;2.60;;;0.60;;
51216;SDS011;37283;49.760;8.648;2022-09-09T16:10:00;1.75;;;0.70;;
51216;SDS011;37283;49.760;8.648;2022-09-09T16:12:29;3.03;;;0.65;;
51216;SDS011;37283;49.760;8.648;2022-09-09T16:14:55;3.65;;;0.73;;
51216;SDS011;37283;49.760;8.648;2022-09-09T16:17:22;2.50;;;0.70;;
51216;SDS011;37283;49.760;8.648;2022-09-09T16:19:48;3.65;;;0.82;;
51216;SDS011;37283;49.760;8.648;2022-09-09T16:22:15;1.45;;;0.70;;
51216;SDS011;37283;49.760;8.648;2022-09-09T16:24:41;2.63;;;0.68;;
51216;SDS011;37283;49.760;8.648;2022-09-09T16:27:08;1.90;;;0.70;;
51216;SDS011;37283;49.760;8.648;2022-09-09T16:29:34;3.63;;;1.40;;
51216;SDS011;37283;49.760;8.648;2022-09-09T16:32:00;4.85;;;0.77;;
51216;SDS011;37283;49.760;8.648;2022-09-09T16:34:29;3.35;;;1.00;;
51216;SDS011;37283;49.760;8.648;2022-09-09T16:36:56;2.33;;;0.85;;
51216;SDS011;37283;49.760;8.648;2022-09-09T16:39:22;3.35;;;0.98;;
51216;SDS011;37283;49.760;8.648;2022-09-09T16:41:49;5.18;;;1.00;;
51216;SDS011;37283;49.760;8.648;2022-09-09T16:44:16;3.65;;;0.90;;
51216;SDS011;37283;49.760;8.648;2022-09-09T16:46:45;2.45;;;0.82;;
51216;SDS011;37283;49.760;8.648;2022-09-09T16:49:14;2.17;;;0.85;;
51216;SDS011;37283;49.760;8.648;2022-09-09T16:51:42;2.95;;;0.98;;
51216;SDS011;37283;49.760;8.648;2022-09-09T16:54:10;2.28;;;0.85;;
51216;SDS011;37283;49.760;8.648;2022-09-09T16:56:38;2.60;;;0.73;;
51216;SDS011;37283;49.760;8.648;2022-09-09T16:59:10;3.20;;;0.65;;
51216;SDS011;37283;49.760;8.648;2022-09-09T17:01:39;2.67;;;1.25;;
51216;SDS011;37283;49.760;8.648;2022-09-09T17:04:08;3.70;;;0.75;;
51216;SDS011;37283;49.760;8.648;2022-09-09T17:06:36;3.33;;;0.75;;
51216;SDS011;37283;49.760;8.648;2022-09-09T17:09:05;3.08;;;0.90;;
51216;SDS011;37283;49.760;8.648;2022-09-09T17:11:33;3.20;;;0.88;;
51216;SDS011;37283;49.760;8.648;2022-09-09T17:14:01;3.47;;;0.80;;
51216;SDS011;37283;49.760;8.648;2022-09-09T17:16:29;3.63;;;1.02;;
51216;SDS011;37283;49.760;8.648;2022-09-09T17:18:56;2.03;;;0.80;;
51216;SDS011;37283;49.760;8.648;2022-09-09T17:21:23;3.95;;;0.82;;
51216;SDS011;37283;49.760;8.648;2022-09-09T17:23:52;3.70;;;1.00;;